| time (UTC) | temp F | wind direction | speed MPH | gust MPH | rain 1hr in | rain 24hr in | rain mn in | humidity % | barometer mb |
| 20260508175024 | 52 | 251 | 15.0 | 24.0 | 0.00 | 0.09 | 0.04 | 60 | 1000.8 |
| 20260508174522 | 52 | 266 | 15.0 | 25.0 | 0.00 | 0.09 | 0.04 | 61 | 1000.8 |
| 20260508174021 | 52 | 254 | 14.0 | 31.0 | 0.00 | 0.09 | 0.04 | 60 | 1000.7 |
| 20260508173518 | 52 | 255 | 12.0 | 24.0 | 0.00 | 0.10 | 0.04 | 60 | 1000.8 |
| 20260508173017 | 52 | 260 | 12.0 | 25.0 | 0.00 | 0.10 | 0.04 | 61 | 1000.9 |
| 20260508172535 | 52 | 247 | 11.0 | 24.0 | 0.00 | 0.11 | 0.04 | 60 | 1000.8 |
| 20260508172033 | 52 | 254 | 12.0 | 26.0 | 0.00 | 0.12 | 0.04 | 60 | 1000.9 |
| 20260508171531 | 52 | 254 | 7.0 | 17.0 | 0.00 | 0.13 | 0.04 | 60 | 1000.9 |
| 20260508171029 | 52 | 254 | 13.0 | 27.0 | 0.00 | 0.13 | 0.04 | 60 | 1000.9 |
| 20260508170531 | 52 | 243 | 12.0 | 24.0 | 0.00 | 0.13 | 0.04 | 60 | 1000.9 |
| 20260508170025 | 52 | 248 | 12.0 | 32.0 | 0.00 | 0.13 | 0.04 | 61 | 1000.8 |
| 20260508165524 | 52 | 249 | 10.0 | 18.0 | 0.00 | 0.13 | 0.04 | 61 | 1000.9 |
| 20260508165021 | 51 | 252 | 13.0 | 35.0 | 0.00 | 0.13 | 0.04 | 60 | 1000.9 |
| 20260508164519 | 51 | 256 | 11.0 | 24.0 | 0.00 | 0.13 | 0.04 | 61 | 1001.0 |
| 20260508164018 | 51 | 253 | 16.0 | 35.0 | 0.00 | 0.13 | 0.04 | 61 | 1001.0 |
| 20260508163536 | 51 | 256 | 14.0 | 26.0 | 0.00 | 0.13 | 0.04 | 62 | 1001.1 |
| 20260508163034 | 51 | 254 | 15.0 | 27.0 | 0.00 | 0.13 | 0.04 | 62 | 1001.0 |
| 20260508162531 | 51 | 258 | 14.0 | 26.0 | 0.00 | 0.13 | 0.04 | 63 | 1001.1 |
| 20260508162029 | 51 | 262 | 11.0 | 26.0 | 0.00 | 0.13 | 0.04 | 64 | 1001.1 |
| 20260508161528 | 51 | 246 | 12.0 | 23.0 | 0.00 | 0.13 | 0.04 | 64 | 1001.1 |
| 20260508161026 | 50 | 255 | 13.0 | 24.0 | 0.00 | 0.13 | 0.04 | 65 | 1001.1 |
| 20260508160524 | 50 | 274 | 13.0 | 27.0 | 0.00 | 0.13 | 0.04 | 65 | 1001.2 |
| 20260508160022 | 50 | 254 | 12.0 | 24.0 | 0.00 | 0.13 | 0.04 | 67 | 1001.1 |
| 20260508155520 | 50 | 256 | 15.0 | 32.0 | 0.00 | 0.13 | 0.04 | 67 | 1001.1 |
| 20260508155018 | 50 | 263 | 14.0 | 27.0 | 0.00 | 0.13 | 0.04 | 67 | 1001.1 |
| 20260508154516 | 49 | 248 | 9.0 | 21.0 | 0.00 | 0.13 | 0.04 | 70 | 1001.1 |
| 20260508154034 | 48 | 251 | 11.0 | 23.0 | 0.00 | 0.13 | 0.04 | 70 | 1001.3 |
| 20260508153532 | 49 | 249 | 12.0 | 26.0 | 0.00 | 0.13 | 0.04 | 70 | 1001.0 |
| 20260508153030 | 48 | 235 | 8.0 | 21.0 | 0.00 | 0.13 | 0.04 | 71 | 1001.3 |
| 20260508152528 | 47 | 260 | 11.0 | 30.0 | 0.00 | 0.13 | 0.04 | 72 | 1001.3 |
| 20260508152026 | 48 | 250 | 14.0 | 32.0 | 0.00 | 0.13 | 0.04 | 71 | 1001.3 |
| 20260508151524 | 48 | 255 | 12.0 | 23.0 | 0.00 | 0.13 | 0.04 | 72 | 1001.3 |
| 20260508151023 | 48 | 257 | 11.0 | 24.0 | 0.00 | 0.13 | 0.04 | 73 | 1001.2 |
| 20260508150521 | 48 | 257 | 12.0 | 24.0 | 0.00 | 0.13 | 0.04 | 73 | 1001.3 |
| 20260508150019 | 48 | 255 | 12.0 | 25.0 | 0.00 | 0.13 | 0.04 | 72 | 1001.3 |
| 20260508145517 | 48 | 252 | 10.0 | 32.0 | 0.00 | 0.13 | 0.04 | 73 | 1001.1 |
| 20260508145036 | 47 | 245 | 9.0 | 19.0 | 0.00 | 0.13 | 0.04 | 74 | 1001.2 |
| 20260508144533 | 48 | 251 | 11.0 | 23.0 | 0.00 | 0.13 | 0.04 | 74 | 1001.1 |
| 20260508144032 | 48 | 250 | 10.0 | 26.0 | 0.00 | 0.13 | 0.04 | 74 | 1001.1 |
| 20260508143530 | 48 | 252 | 13.0 | 29.0 | 0.00 | 0.13 | 0.04 | 73 | 1001.2 |
| 20260508143028 | 48 | 235 | 13.0 | 31.0 | 0.00 | 0.13 | 0.04 | 74 | 1001.0 |
| 20260508142526 | 48 | 254 | 9.0 | 19.0 | 0.00 | 0.13 | 0.04 | 75 | 1001.1 |
| 20260508142025 | 48 | 259 | 14.0 | 35.0 | 0.00 | 0.13 | 0.04 | 75 | 1001.0 |
| 20260508141523 | 48 | 249 | 13.0 | 32.0 | 0.00 | 0.13 | 0.04 | 75 | 1001.0 |
| 20260508141020 | 48 | 233 | 12.0 | 30.0 | 0.00 | 0.13 | 0.04 | 75 | 1001.0 |
| 20260508140519 | 48 | 244 | 13.0 | 30.0 | 0.00 | 0.13 | 0.04 | 76 | 1000.9 |
| 20260508140018 | 48 | 239 | 9.0 | 19.0 | 0.00 | 0.13 | 0.04 | 77 | 1000.9 |
| 20260508135536 | 47 | 258 | 11.0 | 21.0 | 0.00 | 0.13 | 0.04 | 77 | 1001.0 |
| 20260508135034 | 47 | 259 | 11.0 | 24.0 | 0.00 | 0.13 | 0.04 | 77 | 1000.9 |
| 20260508134532 | 47 | 259 | 12.0 | 27.0 | 0.00 | 0.13 | 0.04 | 76 | 1001.0 |
| 20260508134030 | 47 | 252 | 9.0 | 21.0 | 0.00 | 0.13 | 0.04 | 77 | 1001.0 |
| 20260508133529 | 47 | 253 | 9.0 | 22.0 | 0.00 | 0.13 | 0.04 | 77 | 1001.0 |
| 20260508133027 | 47 | 250 | 9.0 | 22.0 | 0.00 | 0.13 | 0.04 | 78 | 1001.1 |
| 20260508132525 | 46 | 246 | 13.0 | 26.0 | 0.00 | 0.13 | 0.04 | 78 | 1001.1 |
| 20260508132023 | 46 | 245 | 11.0 | 22.0 | 0.00 | 0.13 | 0.04 | 79 | 1001.1 |
| 20260508131522 | 46 | 244 | 11.0 | 27.0 | 0.00 | 0.13 | 0.04 | 79 | 1001.2 |
| 20260508131020 | 46 | 248 | 12.0 | 30.0 | 0.00 | 0.13 | 0.04 | 80 | 1001.1 |
| 20260508130518 | 46 | 249 | 9.0 | 18.0 | 0.00 | 0.13 | 0.04 | 80 | 1001.1 |
| 20260508130036 | 46 | 254 | 11.0 | 27.0 | 0.00 | 0.13 | 0.04 | 79 | 1001.0 |
| 20260508125534 | 46 | 254 | 10.0 | 22.0 | 0.00 | 0.13 | 0.04 | 79 | 1001.0 |
| 20260508125032 | 46 | 260 | 11.0 | 24.0 | 0.00 | 0.13 | 0.04 | 80 | 1000.9 |
| 20260508124530 | 45 | 258 | 11.0 | 24.0 | 0.00 | 0.13 | 0.04 | 80 | 1000.7 |
| 20260508124029 | 45 | 246 | 9.0 | 27.0 | 0.00 | 0.13 | 0.04 | 81 | 1000.6 |
| 20260508123527 | 45 | 251 | 13.0 | 25.0 | 0.00 | 0.13 | 0.04 | 82 | 1000.6 |
| 20260508123025 | 44 | 262 | 12.0 | 25.0 | 0.00 | 0.13 | 0.04 | 82 | 1000.5 |
| 20260508122523 | 44 | 255 | 10.0 | 18.0 | 0.00 | 0.13 | 0.04 | 83 | 1000.4 |
| 20260508122021 | 44 | 247 | 9.0 | 18.0 | 0.00 | 0.13 | 0.04 | 84 | 1000.5 |
| 20260508121519 | 44 | 259 | 11.0 | 24.0 | 0.00 | 0.13 | 0.04 | 84 | 1000.4 |
| 20260508121017 | 44 | 254 | 10.0 | 22.0 | 0.00 | 0.13 | 0.04 | 84 | 1000.4 |
| 20260508120516 | 43 | 258 | 10.0 | 27.0 | 0.00 | 0.13 | 0.04 | 85 | 1000.4 |
| 20260508120035 | 43 | 258 | 9.0 | 21.0 | 0.00 | 0.13 | 0.04 | 85 | 1000.2 |
| 20260508115532 | 43 | 261 | 9.0 | 21.0 | 0.00 | 0.13 | 0.04 | 86 | 1000.2 |
| 20260508115030 | 43 | 251 | 10.0 | 25.0 | 0.00 | 0.13 | 0.04 | 87 | 1000.2 |
| 20260508114529 | 43 | 255 | 10.0 | 18.0 | 0.00 | 0.13 | 0.04 | 87 | 1000.3 |
| 20260508114026 | 43 | 261 | 9.0 | 17.0 | 0.00 | 0.13 | 0.04 | 88 | 1000.2 |
| 20260508113524 | 43 | 260 | 10.0 | 17.0 | 0.00 | 0.13 | 0.04 | 88 | 1000.2 |
| 20260508113022 | 43 | 244 | 10.0 | 21.0 | 0.00 | 0.13 | 0.04 | 87 | 1000.2 |
| 20260508112520 | 44 | 258 | 8.0 | 19.0 | 0.00 | 0.13 | 0.04 | 87 | 1000.1 |
| 20260508112016 | 44 | 253 | 10.0 | 18.0 | 0.00 | 0.13 | 0.04 | 86 | 999.9 |
| 20260508111534 | 44 | 257 | 9.0 | 22.0 | 0.00 | 0.13 | 0.04 | 86 | 1000.0 |
| 20260508111033 | 44 | 243 | 10.0 | 19.0 | 0.00 | 0.13 | 0.04 | 86 | 1000.0 |
| 20260508110531 | 44 | 244 | 9.0 | 16.0 | 0.00 | 0.13 | 0.04 | 86 | 999.9 |
| 20260508110029 | 44 | 250 | 10.0 | 21.0 | 0.00 | 0.13 | 0.04 | 86 | 999.8 |
| 20260508105527 | 44 | 249 | 10.0 | 23.0 | 0.00 | 0.13 | 0.04 | 85 | 999.7 |
| 20260508105025 | 44 | 252 | 11.0 | 29.0 | 0.00 | 0.13 | 0.04 | 84 | 999.8 |
| 20260508104523 | 44 | 254 | 10.0 | 27.0 | 0.00 | 0.13 | 0.04 | 85 | 999.6 |
| 20260508104020 | 45 | 242 | 10.0 | 25.0 | 0.00 | 0.13 | 0.04 | 85 | 999.6 |
| 20260508103519 | 45 | 252 | 10.0 | 26.0 | 0.00 | 0.13 | 0.04 | 85 | 999.5 |
| 20260508103018 | 45 | 257 | 12.0 | 25.0 | 0.00 | 0.13 | 0.04 | 85 | 999.5 |
| 20260508102535 | 45 | 245 | 13.0 | 26.0 | 0.00 | 0.13 | 0.04 | 85 | 999.7 |
| 20260508102033 | 45 | 234 | 11.0 | 26.0 | 0.00 | 0.13 | 0.04 | 85 | 999.5 |
| 20260508101531 | 45 | 245 | 10.0 | 24.0 | 0.00 | 0.13 | 0.04 | 85 | 999.5 |
| 20260508101030 | 45 | 245 | 10.0 | 23.0 | 0.00 | 0.13 | 0.04 | 86 | 999.6 |
| 20260508100528 | 45 | 248 | 10.0 | 23.0 | 0.00 | 0.13 | 0.04 | 86 | 999.5 |
| 20260508100025 | 45 | 243 | 13.0 | 27.0 | 0.00 | 0.13 | 0.04 | 85 | 999.5 |
| 20260508095525 | 45 | 249 | 10.0 | 30.0 | 0.00 | 0.13 | 0.04 | 85 | 999.6 |
| 20260508095022 | 45 | 258 | 12.0 | 30.0 | 0.00 | 0.13 | 0.04 | 86 | 999.6 |
| 20260508094521 | 45 | 257 | 11.0 | 23.0 | 0.00 | 0.13 | 0.04 | 86 | 999.5 |
| 20260508094019 | 45 | 247 | 13.0 | 29.0 | 0.00 | 0.13 | 0.04 | 86 | 999.4 |
| 20260508093517 | 45 | 243 | 13.0 | 34.0 | 0.00 | 0.13 | 0.04 | 86 | 999.5 |
| 20260508093036 | 45 | 260 | 10.0 | 23.0 | 0.00 | 0.13 | 0.04 | 87 | 999.4 |
| 20260508092534 | 46 | 242 | 11.0 | 26.0 | 0.00 | 0.13 | 0.04 | 87 | 999.1 |
| 20260508092032 | 46 | 256 | 11.0 | 23.0 | 0.00 | 0.13 | 0.04 | 87 | 999.1 |
| 20260508091530 | 46 | 247 | 10.0 | 24.0 | 0.00 | 0.13 | 0.04 | 87 | 999.2 |
| 20260508091029 | 46 | 251 | 10.0 | 26.0 | 0.00 | 0.13 | 0.04 | 87 | 999.1 |
| 20260508090526 | 46 | 232 | 10.0 | 23.0 | 0.00 | 0.13 | 0.04 | 87 | 999.0 |
| 20260508090025 | 46 | 245 | 12.0 | 29.0 | 0.00 | 0.13 | 0.04 | 87 | 999.0 |
| 20260508085523 | 46 | 247 | 12.0 | 25.0 | 0.00 | 0.13 | 0.04 | 88 | 999.1 |
| 20260508085021 | 46 | 240 | 10.0 | 27.0 | 0.00 | 0.13 | 0.04 | 88 | 999.1 |
| 20260508084519 | 46 | 236 | 13.0 | 26.0 | 0.00 | 0.13 | 0.04 | 88 | 999.0 |
| 20260508084017 | 46 | 225 | 11.0 | 23.0 | 0.00 | 0.13 | 0.04 | 89 | 999.0 |
| 20260508083536 | 46 | 241 | 10.0 | 23.0 | 0.00 | 0.13 | 0.04 | 89 | 999.1 |
| 20260508083034 | 46 | 240 | 10.0 | 21.0 | 0.00 | 0.13 | 0.04 | 89 | 999.2 |
| 20260508082531 | 46 | 241 | 9.0 | 23.0 | 0.00 | 0.13 | 0.04 | 89 | 999.2 |
| 20260508082030 | 46 | 253 | 11.0 | 24.0 | 0.00 | 0.13 | 0.04 | 89 | 999.2 |
| 20260508081528 | 46 | 252 | 12.0 | 24.0 | 0.00 | 0.13 | 0.04 | 89 | 999.3 |
| 20260508081027 | 46 | 214 | 12.0 | 23.0 | 0.00 | 0.13 | 0.04 | 89 | 999.2 |
| 20260508080525 | 46 | 239 | 11.0 | 30.0 | 0.00 | 0.13 | 0.04 | 90 | 999.1 |
| 20260508080023 | 46 | 255 | 8.0 | 17.0 | 0.00 | 0.13 | 0.04 | 90 | 999.1 |
| 20260508075522 | 46 | 244 | 12.0 | 27.0 | 0.00 | 0.13 | 0.04 | 90 | 999.0 |
| 20260508075019 | 46 | 244 | 10.0 | 24.0 | 0.00 | 0.13 | 0.04 | 90 | 998.9 |
| 20260508074518 | 46 | 232 | 10.0 | 22.0 | 0.00 | 0.13 | 0.04 | 90 | 998.9 |
| 20260508074016 | 46 | 241 | 10.0 | 23.0 | 0.00 | 0.13 | 0.04 | 90 | 999.0 |
| 20260508073534 | 46 | 241 | 10.0 | 23.0 | 0.00 | 0.13 | 0.04 | 90 | 999.1 |
| 20260508072530 | 46 | 243 | 11.0 | 22.0 | 0.00 | 0.13 | 0.04 | 90 | 999.1 |
| 20260508072028 | 46 | 234 | 12.0 | 30.0 | 0.00 | 0.13 | 0.04 | 90 | 999.3 |
| 20260508071527 | 46 | 236 | 9.0 | 21.0 | 0.00 | 0.13 | 0.04 | 91 | 999.4 |
| 20260508071025 | 46 | 242 | 10.0 | 27.0 | 0.00 | 0.13 | 0.04 | 91 | 999.3 |
| 20260508070523 | 46 | 249 | 10.0 | 26.0 | 0.00 | 0.13 | 0.04 | 91 | 999.4 |
| 20260508070021 | 46 | 237 | 12.0 | 24.0 | 0.00 | 0.13 | 0.04 | 91 | 999.4 |
| 20260508065519 | 46 | 243 | 11.0 | 26.0 | 0.01 | 0.13 | 0.04 | 91 | 999.3 |
| 20260508065018 | 46 | 234 | 10.0 | 24.0 | 0.01 | 0.13 | 0.04 | 91 | 999.4 |
| 20260508064516 | 46 | 246 | 11.0 | 25.0 | 0.02 | 0.13 | 0.04 | 92 | 999.4 |
| 20260508064035 | 46 | 242 | 10.0 | 25.0 | 0.02 | 0.13 | 0.04 | 92 | 999.4 |
| 20260508063533 | 46 | 252 | 11.0 | 26.0 | 0.02 | 0.13 | 0.04 | 92 | 999.4 |
| 20260508063031 | 46 | 257 | 10.0 | 24.0 | 0.02 | 0.13 | 0.04 | 93 | 999.4 |
| 20260508062529 | 46 | 232 | 9.0 | 21.0 | 0.02 | 0.13 | 0.04 | 93 | 999.5 |
| 20260508062027 | 46 | 242 | 8.0 | 21.0 | 0.02 | 0.13 | 0.04 | 94 | 999.5 |
| 20260508061525 | 46 | 229 | 8.0 | 17.0 | 0.02 | 0.13 | 0.04 | 94 | 999.6 |
| 20260508061024 | 46 | 246 | 9.0 | 23.0 | 0.02 | 0.13 | 0.03 | 95 | 999.7 |
| 20260508060522 | 46 | 240 | 9.0 | 18.0 | 0.02 | 0.13 | 0.03 | 95 | 999.9 |
| 20260508060020 | 46 | 234 | 9.0 | 21.0 | 0.02 | 0.13 | 0.03 | 96 | 999.9 |
| 20260508055518 | 46 | 238 | 9.0 | 22.0 | 0.01 | 0.12 | 0.03 | 96 | 999.8 |
| 20260508055016 | 46 | 237 | 9.0 | 24.0 | 0.01 | 0.12 | 0.02 | 95 | 999.9 |
| 20260508054535 | 46 | 238 | 9.0 | 19.0 | 0.00 | 0.11 | 0.02 | 95 | 999.9 |
| 20260508054033 | 46 | 241 | 8.0 | 17.0 | 0.00 | 0.11 | 0.02 | 95 | 999.9 |
| 20260508053532 | 46 | 250 | 10.0 | 22.0 | 0.00 | 0.11 | 0.02 | 94 | 999.9 |
| 20260508053030 | 46 | 252 | 11.0 | 23.0 | 0.00 | 0.11 | 0.02 | 95 | 999.9 |
| 20260508052528 | 46 | 241 | 8.0 | 19.0 | 0.00 | 0.11 | 0.02 | 95 | 1000.0 |
| 20260508052025 | 46 | 258 | 10.0 | 24.0 | 0.00 | 0.11 | 0.02 | 95 | 999.9 |
| 20260508051525 | 46 | 257 | 10.0 | 18.0 | 0.00 | 0.11 | 0.02 | 95 | 999.8 |
| 20260508051022 | 46 | 256 | 7.0 | 16.0 | 0.01 | 0.11 | 0.02 | 96 | 999.8 |
| 20260508050520 | 46 | 243 | 10.0 | 19.0 | 0.01 | 0.11 | 0.02 | 96 | 999.9 |
| 20260508050019 | 46 | 251 | 10.0 | 23.0 | 0.01 | 0.11 | 0.02 | 96 | 1000.0 |
| 20260508045517 | 45 | 252 | 10.0 | 18.0 | 0.01 | 0.11 | 0.02 | 97 | 1000.0 |
| 20260508045036 | 45 | 244 | 10.0 | 22.0 | 0.01 | 0.11 | 0.02 | 97 | 1000.1 |
| 20260508044534 | 45 | 261 | 9.0 | 21.0 | 0.01 | 0.11 | 0.02 | 97 | 1000.1 |
| 20260508044032 | 45 | 260 | 8.0 | 19.0 | 0.01 | 0.11 | 0.02 | 97 | 1000.0 |
| 20260508043530 | 45 | 250 | 7.0 | 15.0 | 0.01 | 0.11 | 0.02 | 97 | 1000.2 |
| 20260508043028 | 45 | 236 | 8.0 | 21.0 | 0.01 | 0.11 | 0.01 | 97 | 1000.3 |
| 20260508042526 | 45 | 269 | 9.0 | 26.0 | 0.01 | 0.11 | 0.01 | 97 | 1000.3 |
| 20260508042025 | 45 | 239 | 7.0 | 15.0 | 0.01 | 0.11 | 0.01 | 97 | 1000.4 |
| 20260508041523 | 45 | 254 | 7.0 | 22.0 | 0.01 | 0.11 | 0.01 | 97 | 1000.4 |
| 20260508041021 | 45 | 241 | 9.0 | 22.0 | 0.00 | 0.10 | 0.01 | 97 | 1000.4 |
| 20260508040520 | 45 | 236 | 7.0 | 17.0 | 0.01 | 0.10 | 0.01 | 97 | 1000.3 |
| 20260508040018 | 45 | 234 | 8.0 | 15.0 | 0.00 | 0.10 | 0.00 | 97 | 1000.4 |
| 20260508035536 | 45 | 249 | 7.0 | 21.0 | 0.01 | 0.10 | 0.00 | 97 | 1000.5 |
| 20260508035034 | 45 | 244 | 8.0 | 16.0 | 0.01 | 0.10 | 0.00 | 96 | 1000.5 |
| 20260508034533 | 45 | 228 | 8.0 | 19.0 | 0.01 | 0.10 | 0.00 | 96 | 1000.4 |
| 20260508034031 | 45 | 240 | 10.0 | 23.0 | 0.01 | 0.10 | 0.00 | 96 | 1000.4 |
| 20260508033529 | 45 | 246 | 9.0 | 21.0 | 0.01 | 0.10 | 0.00 | 96 | 1000.5 |
| 20260508033027 | 45 | 251 | 8.0 | 21.0 | 0.01 | 0.10 | 0.00 | 95 | 1000.3 |
| 20260508032525 | 45 | 243 | 8.0 | 17.0 | 0.01 | 0.10 | 0.00 | 95 | 1000.3 |
| 20260508032023 | 45 | 241 | 9.0 | 24.0 | 0.01 | 0.10 | 0.00 | 95 | 1000.3 |
| 20260508031521 | 45 | 244 | 9.0 | 23.0 | 0.01 | 0.10 | 0.00 | 94 | 1000.3 |
| 20260508031020 | 45 | 249 | 9.0 | 23.0 | 0.01 | 0.10 | 0.00 | 94 | 1000.3 |
| 20260508030518 | 45 | 252 | 9.0 | 22.0 | 0.00 | 0.09 | 0.00 | 93 | 1000.4 |
| 20260508030016 | 45 | 236 | 8.0 | 21.0 | 0.00 | 0.09 | 0.09 | 92 | 1000.5 |
| 20260508025534 | 46 | 241 | 9.0 | 19.0 | 0.00 | 0.09 | 0.09 | 91 | 1000.6 |
| 20260508025033 | 46 | 239 | 9.0 | 24.0 | 0.00 | 0.09 | 0.09 | 91 | 1000.6 |
| 20260508024531 | 46 | 240 | 10.0 | 19.0 | 0.00 | 0.09 | 0.09 | 90 | 1000.7 |
| 20260508024029 | 46 | 240 | 9.0 | 21.0 | 0.00 | 0.09 | 0.09 | 88 | 1000.8 |
| 20260508023527 | 46 | 253 | 7.0 | 18.0 | 0.00 | 0.09 | 0.09 | 87 | 1000.8 |
| 20260508023025 | 47 | 254 | 10.0 | 19.0 | 0.00 | 0.09 | 0.09 | 86 | 1000.9 |
| 20260508022524 | 47 | 232 | 10.0 | 29.0 | 0.00 | 0.09 | 0.09 | 85 | 1001.0 |
| 20260508022022 | 47 | 247 | 11.0 | 26.0 | 0.00 | 0.09 | 0.09 | 85 | 1000.9 |
| 20260508021520 | 47 | 232 | 8.0 | 17.0 | 0.00 | 0.09 | 0.09 | 84 | 1000.9 |
| 20260508021018 | 47 | 232 | 8.0 | 17.0 | 0.00 | 0.09 | 0.09 | 84 | 1000.9 |
| 20260508020517 | 47 | 224 | 11.0 | 23.0 | 0.00 | 0.09 | 0.09 | 84 | 1000.9 |
| 20260508020035 | 47 | 249 | 12.0 | 27.0 | 0.00 | 0.09 | 0.09 | 84 | 1000.9 |
| 20260508015533 | 47 | 250 | 11.0 | 26.0 | 0.00 | 0.09 | 0.09 | 84 | 1001.0 |
| 20260508015031 | 47 | 247 | 9.0 | 24.0 | 0.00 | 0.09 | 0.09 | 84 | 1000.9 |
| 20260508014529 | 47 | 226 | 10.0 | 26.0 | 0.00 | 0.09 | 0.09 | 84 | 1001.0 |
| 20260508014027 | 47 | 247 | 11.0 | 29.0 | 0.00 | 0.09 | 0.09 | 84 | 1001.0 |
| 20260508013526 | 47 | 228 | 12.0 | 26.0 | 0.00 | 0.09 | 0.09 | 85 | 1001.1 |
| 20260508013024 | 47 | 253 | 8.0 | 19.0 | 0.00 | 0.09 | 0.09 | 87 | 1001.1 |
| 20260508012522 | 48 | 233 | 9.0 | 24.0 | 0.00 | 0.09 | 0.09 | 87 | 1001.3 |
| 20260508012021 | 48 | 239 | 7.0 | 16.0 | 0.00 | 0.09 | 0.09 | 88 | 1001.2 |
| 20260508011518 | 48 | 236 | 8.0 | 16.0 | 0.00 | 0.09 | 0.09 | 88 | 1001.3 |
| 20260508011016 | 48 | 216 | 9.0 | 18.0 | 0.00 | 0.09 | 0.09 | 87 | 1001.2 |
| 20260508010535 | 48 | 247 | 9.0 | 23.0 | 0.00 | 0.09 | 0.09 | 87 | 1001.4 |
| 20260508010033 | 48 | 249 | 11.0 | 25.0 | 0.00 | 0.09 | 0.09 | 88 | 1001.4 |
| 20260508005531 | 48 | 231 | 8.0 | 16.0 | 0.00 | 0.09 | 0.09 | 88 | 1001.5 |
| 20260508005029 | 48 | 224 | 10.0 | 27.0 | 0.00 | 0.09 | 0.09 | 88 | 1001.6 |
| 20260508004528 | 48 | 236 | 10.0 | 19.0 | 0.00 | 0.09 | 0.09 | 88 | 1001.6 |
| 20260508004025 | 48 | 244 | 11.0 | 22.0 | 0.00 | 0.09 | 0.09 | 89 | 1001.6 |
| 20260508003524 | 49 | 228 | 10.0 | 22.0 | 0.00 | 0.09 | 0.09 | 89 | 1001.5 |
| 20260508003022 | 49 | 223 | 10.0 | 25.0 | 0.00 | 0.09 | 0.09 | 89 | 1001.5 |
| 20260508002520 | 49 | 243 | 11.0 | 33.0 | 0.00 | 0.09 | 0.09 | 89 | 1001.6 |
| 20260508002019 | 49 | 245 | 9.0 | 21.0 | 0.00 | 0.09 | 0.09 | 91 | 1001.5 |
| 20260508001516 | 49 | 241 | 10.0 | 27.0 | 0.00 | 0.09 | 0.09 | 91 | 1001.5 |
| 20260508001035 | 49 | 235 | 10.0 | 23.0 | 0.00 | 0.09 | 0.09 | 92 | 1001.5 |
| 20260508000534 | 50 | 229 | 10.0 | 26.0 | 0.00 | 0.09 | 0.09 | 92 | 1001.4 |
| 20260508000032 | 50 | 237 | 12.0 | 23.0 | 0.00 | 0.09 | 0.09 | 92 | 1001.4 |
| 20260507235530 | 50 | 244 | 9.0 | 18.0 | 0.00 | 0.10 | 0.09 | 92 | 1001.4 |
| 20260507235027 | 50 | 252 | 10.0 | 22.0 | 0.00 | 0.10 | 0.09 | 92 | 1001.4 |
| 20260507234526 | 50 | 244 | 8.0 | 18.0 | 0.00 | 0.11 | 0.09 | 92 | 1001.4 |
| 20260507234024 | 50 | 235 | 8.0 | 21.0 | 0.00 | 0.11 | 0.09 | 93 | 1001.2 |
| 20260507233522 | 50 | 247 | 8.0 | 16.0 | 0.00 | 0.11 | 0.09 | 93 | 1001.2 |
| 20260507233021 | 50 | 236 | 9.0 | 23.0 | 0.00 | 0.12 | 0.09 | 94 | 1001.1 |
| 20260507232519 | 50 | 247 | 7.0 | 15.0 | 0.00 | 0.12 | 0.09 | 95 | 1001.0 |
| 20260507232016 | 50 | 246 | 6.0 | 14.0 | 0.00 | 0.12 | 0.09 | 95 | 1000.9 |
| 20260507231535 | 50 | 233 | 8.0 | 19.0 | 0.00 | 0.12 | 0.09 | 95 | 1000.8 |
| 20260507231033 | 50 | 252 | 8.0 | 16.0 | 0.00 | 0.12 | 0.09 | 95 | 1000.8 |
| 20260507230532 | 50 | 247 | 9.0 | 22.0 | 0.00 | 0.12 | 0.09 | 95 | 1000.7 |
| 20260507230030 | 51 | 244 | 7.0 | 16.0 | 0.00 | 0.12 | 0.09 | 95 | 1000.7 |
| 20260507225528 | 51 | 229 | 8.0 | 24.0 | 0.01 | 0.12 | 0.09 | 95 | 1000.6 |
| 20260507225026 | 51 | 251 | 11.0 | 22.0 | 0.02 | 0.12 | 0.09 | 96 | 1000.6 |
| 20260507224524 | 51 | 238 | 8.0 | 21.0 | 0.02 | 0.12 | 0.09 | 96 | 1000.4 |
| 20260507224022 | 51 | 250 | 7.0 | 18.0 | 0.03 | 0.12 | 0.09 | 96 | 1000.5 |
| 20260507223521 | 51 | 239 | 9.0 | 18.0 | 0.03 | 0.12 | 0.09 | 96 | 1000.5 |
| 20260507223018 | 51 | 243 | 9.0 | 16.0 | 0.03 | 0.12 | 0.09 | 96 | 1000.4 |
| 20260507222517 | 51 | 226 | 8.0 | 17.0 | 0.03 | 0.12 | 0.09 | 97 | 1000.3 |
| 20260507222035 | 51 | 227 | 7.0 | 19.0 | 0.03 | 0.12 | 0.09 | 98 | 1000.3 |
| 20260507221533 | 51 | 241 | 8.0 | 21.0 | 0.03 | 0.12 | 0.09 | 98 | 1000.3 |
| 20260507221031 | 51 | 240 | 7.0 | 16.0 | 0.03 | 0.12 | 0.09 | 98 | 1000.3 |
| 20260507220529 | 51 | 231 | 9.0 | 19.0 | 0.03 | 0.12 | 0.09 | 98 | 1000.1 |
| 20260507220028 | 51 | 241 | 8.0 | 18.0 | 0.03 | 0.11 | 0.09 | 98 | 1000.1 |
| 20260507215524 | 52 | 250 | 8.0 | 18.0 | 0.02 | 0.11 | 0.08 | 97 | 1000.0 |
| 20260507215023 | 52 | 227 | 8.0 | 22.0 | 0.01 | 0.10 | 0.07 | 97 | 1000.0 |
| 20260507214521 | 52 | 254 | 10.0 | 22.0 | 0.01 | 0.09 | 0.07 | 97 | 1000.0 |
| 20260507214018 | 53 | 254 | 8.0 | 17.0 | 0.00 | 0.09 | 0.06 | 96 | 1000.0 |
| 20260507213516 | 53 | 237 | 5.0 | 15.0 | 0.00 | 0.09 | 0.06 | 96 | 999.9 |
| 20260507213034 | 53 | 242 | 8.0 | 19.0 | 0.00 | 0.09 | 0.06 | 97 | 999.9 |
| 20260507212532 | 53 | 232 | 8.0 | 17.0 | 0.00 | 0.09 | 0.06 | 97 | 999.8 |
| 20260507212030 | 53 | 224 | 7.0 | 18.0 | 0.00 | 0.09 | 0.06 | 97 | 999.9 |
| 20260507211528 | 53 | 241 | 6.0 | 16.0 | 0.00 | 0.09 | 0.06 | 97 | 999.7 |
| 20260507211026 | 53 | 228 | 8.0 | 18.0 | 0.01 | 0.09 | 0.06 | 97 | 999.7 |
| 20260507210524 | 53 | 238 | 8.0 | 19.0 | 0.01 | 0.09 | 0.06 | 97 | 999.8 |
| 20260507210023 | 53 | 241 | 8.0 | 17.0 | 0.01 | 0.09 | 0.06 | 98 | 999.8 |
| 20260507205520 | 53 | 238 | 8.0 | 18.0 | 0.01 | 0.09 | 0.06 | 98 | 999.7 |
| 20260507205019 | 53 | 224 | 7.0 | 18.0 | 0.01 | 0.09 | 0.06 | 99 | 999.5 |
| 20260507204517 | 53 | 234 | 7.0 | 16.0 | 0.01 | 0.09 | 0.06 | 98 | 999.2 |
| 20260507204035 | 53 | 245 | 7.0 | 18.0 | 0.01 | 0.09 | 0.06 | 98 | 998.9 |
| 20260507203533 | 53 | 243 | 10.0 | 23.0 | 0.01 | 0.09 | 0.06 | 98 | 998.9 |
| 20260507203031 | 54 | 229 | 6.0 | 18.0 | 0.01 | 0.09 | 0.06 | 98 | 998.8 |
| 20260507202528 | 54 | 218 | 8.0 | 18.0 | 0.00 | 0.09 | 0.06 | 98 | 998.6 |
| 20260507202027 | 54 | 214 | 8.0 | 16.0 | 0.00 | 0.09 | 0.06 | 96 | 998.7 |
| 20260507201525 | 55 | 226 | 8.0 | 19.0 | 0.00 | 0.09 | 0.06 | 95 | 998.6 |
| 20260507201024 | 55 | 224 | 8.0 | 18.0 | 0.00 | 0.08 | 0.05 | 94 | 998.8 |
| 20260507200522 | 55 | 228 | 6.0 | 14.0 | 0.00 | 0.08 | 0.05 | 94 | 999.0 |
| 20260507200020 | 55 | 217 | 9.0 | 18.0 | 0.00 | 0.08 | 0.05 | 94 | 999.0 |
| 20260507195518 | 55 | 234 | 7.0 | 19.0 | 0.00 | 0.08 | 0.05 | 95 | 999.3 |
| 20260507195016 | 55 | 227 | 7.0 | 18.0 | 0.00 | 0.08 | 0.05 | 95 | 999.3 |
| 20260507194535 | 56 | 224 | 8.0 | 21.0 | 0.00 | 0.08 | 0.05 | 95 | 999.3 |
| 20260507194033 | 56 | 226 | 6.0 | 11.0 | 0.00 | 0.08 | 0.05 | 95 | 999.4 |
| 20260507193531 | 56 | 225 | 6.0 | 21.0 | 0.00 | 0.08 | 0.05 | 95 | 999.4 |
| 20260507193029 | 56 | 222 | 7.0 | 17.0 | 0.00 | 0.08 | 0.05 | 95 | 999.4 |
| 20260507192527 | 57 | 213 | 6.0 | 18.0 | 0.00 | 0.08 | 0.05 | 95 | 999.3 |
| 20260507192025 | 57 | 243 | 7.0 | 16.0 | 0.00 | 0.08 | 0.05 | 95 | 999.3 |
| 20260507191523 | 57 | 255 | 5.0 | 16.0 | 0.01 | 0.08 | 0.05 | 96 | 999.2 |
| 20260507191022 | 57 | 237 | 5.0 | 13.0 | 0.01 | 0.08 | 0.05 | 96 | 999.3 |
| 20260507190520 | 57 | 243 | 5.0 | 13.0 | 0.01 | 0.08 | 0.05 | 96 | 999.4 |
| 20260507190018 | 57 | 252 | 5.0 | 13.0 | 0.01 | 0.08 | 0.05 | 97 | 999.4 |
| 20260507185536 | 57 | 233 | 4.0 | 11.0 | 0.01 | 0.08 | 0.05 | 97 | 999.4 |
| 20260507185034 | 57 | 241 | 4.0 | 9.0 | 0.02 | 0.08 | 0.05 | 98 | 999.3 |
| 20260507184533 | 57 | 223 | 4.0 | 9.0 | 0.02 | 0.08 | 0.05 | 98 | 999.4 |
| 20260507184030 | 57 | 255 | 2.0 | 8.0 | 0.02 | 0.08 | 0.05 | 99 | 999.4 |
| 20260507183529 | 56 | 236 | 3.0 | 8.0 | 0.02 | 0.08 | 0.05 | 99 | 999.3 |
| 20260507183027 | 56 | 245 | 4.0 | 11.0 | 0.02 | 0.08 | 0.05 | 99 | 999.3 |
| 20260507182525 | 56 | 244 | 5.0 | 11.0 | 0.04 | 0.08 | 0.05 | 99 | 999.4 |
| 20260507182023 | 56 | 255 | 5.0 | 11.0 | 0.04 | 0.08 | 0.05 | 99 | 999.4 |
| 20260507181521 | 56 | 256 | 6.0 | 15.0 | 0.04 | 0.07 | 0.04 | 99 | 999.4 |
| 20260507181018 | 56 | 246 | 5.0 | 14.0 | 0.04 | 0.07 | 0.04 | 99 | 999.4 |
| 20260507180517 | 56 | 254 | 7.0 | 15.0 | 0.04 | 0.07 | 0.04 | 99 | 999.5 |
| 20260507180035 | 56 | 261 | 6.0 | 11.0 | 0.04 | 0.07 | 0.04 | 99 | 999.3 |
| 20260507175534 | 56 | 259 | 6.0 | 11.0 | 0.04 | 0.07 | 0.04 | 99 | 999.1 |